sensor_id;sensor_type;location;lat;lon;timestamp;temperature;humidity
40516;DHT22;26216;53.724;9.898;2022-12-07T00:01:30;5.40;99.90
40516;DHT22;26216;53.724;9.898;2022-12-07T00:03:58;5.40;99.90
40516;DHT22;26216;53.724;9.898;2022-12-07T00:06:30;5.40;99.90
40516;DHT22;26216;53.724;9.898;2022-12-07T00:08:57;5.40;99.90
40516;DHT22;26216;53.724;9.898;2022-12-07T00:11:24;5.40;99.90
40516;DHT22;26216;53.724;9.898;2022-12-07T00:13:58;5.50;99.90
40516;DHT22;26216;53.724;9.898;2022-12-07T00:16:26;5.50;99.90
40516;DHT22;26216;53.724;9.898;2022-12-07T00:18:52;5.50;99.90
40516;DHT22;26216;53.724;9.898;2022-12-07T00:21:27;5.50;99.90
40516;DHT22;26216;53.724;9.898;2022-12-07T00:23:54;5.60;99.90
40516;DHT22;26216;53.724;9.898;2022-12-07T00:26:22;5.60;99.90
40516;DHT22;26216;53.724;9.898;2022-12-07T00:28:51;5.60;99.90
40516;DHT22;26216;53.724;9.898;2022-12-07T00:31:20;5.60;99.90
40516;DHT22;26216;53.724;9.898;2022-12-07T00:33:47;5.60;99.90
40516;DHT22;26216;53.724;9.898;2022-12-07T00:36:18;5.60;99.90
40516;DHT22;26216;53.724;9.898;2022-12-07T00:38:44;5.60;99.90
40516;DHT22;26216;53.724;9.898;2022-12-07T00:41:19;5.60;99.90
40516;DHT22;26216;53.724;9.898;2022-12-07T00:43:46;5.60;99.90
40516;DHT22;26216;53.724;9.898;2022-12-07T00:46:14;5.60;99.90
40516;DHT22;26216;53.724;9.898;2022-12-07T00:48:40;5.60;99.90
40516;DHT22;26216;53.724;9.898;2022-12-07T00:51:06;5.50;99.90
40516;DHT22;26216;53.724;9.898;2022-12-07T00:53:36;5.50;99.90
40516;DHT22;26216;53.724;9.898;2022-12-07T00:56:11;5.50;99.90
40516;DHT22;26216;53.724;9.898;2022-12-07T00:58:37;5.50;99.90
40516;DHT22;26216;53.724;9.898;2022-12-07T01:01:04;5.40;99.90
40516;DHT22;26216;53.724;9.898;2022-12-07T01:03:31;5.40;99.90
40516;DHT22;26216;53.724;9.898;2022-12-07T01:05:57;5.40;99.90
40516;DHT22;26216;53.724;9.898;2022-12-07T01:08:25;5.40;99.90
40516;DHT22;26216;53.724;9.898;2022-12-07T01:10:59;5.30;99.90
40516;DHT22;26216;53.724;9.898;2022-12-07T01:13:25;5.30;99.90
40516;DHT22;26216;53.724;9.898;2022-12-07T01:15:51;5.30;99.90
40516;DHT22;26216;53.724;9.898;2022-12-07T01:18:17;5.30;99.90
40516;DHT22;26216;53.724;9.898;2022-12-07T01:20:43;5.20;99.90
40516;DHT22;26216;53.724;9.898;2022-12-07T01:23:08;5.20;99.90
40516;DHT22;26216;53.724;9.898;2022-12-07T01:25:34;5.20;99.90
40516;DHT22;26216;53.724;9.898;2022-12-07T01:28:00;5.20;99.90
40516;DHT22;26216;53.724;9.898;2022-12-07T01:30:26;5.20;99.90
40516;DHT22;26216;53.724;9.898;2022-12-07T01:32:52;5.20;99.90
40516;DHT22;26216;53.724;9.898;2022-12-07T01:35:17;5.10;99.90
40516;DHT22;26216;53.724;9.898;2022-12-07T01:37:43;5.10;99.90
40516;DHT22;26216;53.724;9.898;2022-12-07T01:40:10;5.10;99.90
40516;DHT22;26216;53.724;9.898;2022-12-07T01:42:36;5.10;99.90
40516;DHT22;26216;53.724;9.898;2022-12-07T01:45:36;5.00;99.90
40516;DHT22;26216;53.724;9.898;2022-12-07T01:48:02;5.00;99.90
40516;DHT22;26216;53.724;9.898;2022-12-07T01:50:29;5.00;99.90
40516;DHT22;26216;53.724;9.898;2022-12-07T01:53:00;4.90;99.90
40516;DHT22;26216;53.724;9.898;2022-12-07T01:55:27;4.90;99.90
40516;DHT22;26216;53.724;9.898;2022-12-07T01:57:54;4.80;99.90
40516;DHT22;26216;53.724;9.898;2022-12-07T02:00:21;4.80;99.90
40516;DHT22;26216;53.724;9.898;2022-12-07T02:02:54;4.80;99.90
40516;DHT22;26216;53.724;9.898;2022-12-07T02:05:22;4.80;99.90
40516;DHT22;26216;53.724;9.898;2022-12-07T02:07:51;4.70;99.90
40516;DHT22;26216;53.724;9.898;2022-12-07T02:10:28;4.70;99.90
40516;DHT22;26216;53.724;9.898;2022-12-07T02:13:05;4.70;99.90
40516;DHT22;26216;53.724;9.898;2022-12-07T02:15:57;4.70;99.90
40516;DHT22;26216;53.724;9.898;2022-12-07T02:21:07;4.60;99.90
40516;DHT22;26216;53.724;9.898;2022-12-07T02:24:14;4.60;99.90
40516;DHT22;26216;53.724;9.898;2022-12-07T02:29:35;4.60;99.90
40516;DHT22;26216;53.724;9.898;2022-12-07T02:32:15;4.60;99.90
40516;DHT22;26216;53.724;9.898;2022-12-07T02:34:49;4.60;99.90
40516;DHT22;26216;53.724;9.898;2022-12-07T02:37:35;4.60;99.90
40516;DHT22;26216;53.724;9.898;2022-12-07T02:40:29;4.60;99.90
40516;DHT22;26216;53.724;9.898;2022-12-07T02:43:17;4.60;99.90
40516;DHT22;26216;53.724;9.898;2022-12-07T02:45:45;4.50;99.90
40516;DHT22;26216;53.724;9.898;2022-12-07T02:48:16;4.50;99.90
40516;DHT22;26216;53.724;9.898;2022-12-07T02:50:50;4.50;99.90
40516;DHT22;26216;53.724;9.898;2022-12-07T02:53:34;4.50;99.90
40516;DHT22;26216;53.724;9.898;2022-12-07T02:59:42;4.50;99.90
40516;DHT22;26216;53.724;9.898;2022-12-07T03:07:59;4.50;99.90
40516;DHT22;26216;53.724;9.898;2022-12-07T03:10:48;4.50;99.90
40516;DHT22;26216;53.724;9.898;2022-12-07T03:13:37;4.50;99.90
40516;DHT22;26216;53.724;9.898;2022-12-07T03:18:49;4.40;99.90
40516;DHT22;26216;53.724;9.898;2022-12-07T03:21:22;4.40;99.90
40516;DHT22;26216;53.724;9.898;2022-12-07T03:23:53;4.40;99.90
40516;DHT22;26216;53.724;9.898;2022-12-07T03:26:21;4.30;99.90
40516;DHT22;26216;53.724;9.898;2022-12-07T03:28:56;4.30;99.90
40516;DHT22;26216;53.724;9.898;2022-12-07T03:31:32;4.30;99.90
40516;DHT22;26216;53.724;9.898;2022-12-07T03:34:03;4.30;99.90
40516;DHT22;26216;53.724;9.898;2022-12-07T03:36:32;4.20;99.90
40516;DHT22;26216;53.724;9.898;2022-12-07T03:41:39;4.20;99.90
40516;DHT22;26216;53.724;9.898;2022-12-07T03:44:06;4.20;99.90
40516;DHT22;26216;53.724;9.898;2022-12-07T03:46:43;4.20;99.90
40516;DHT22;26216;53.724;9.898;2022-12-07T03:49:33;4.20;99.90
40516;DHT22;26216;53.724;9.898;2022-12-07T03:52:03;4.20;99.90
40516;DHT22;26216;53.724;9.898;2022-12-07T03:54:36;4.10;99.90
40516;DHT22;26216;53.724;9.898;2022-12-07T03:57:04;4.10;99.90
40516;DHT22;26216;53.724;9.898;2022-12-07T03:59:30;4.10;99.90
40516;DHT22;26216;53.724;9.898;2022-12-07T04:02:01;4.10;99.90
40516;DHT22;26216;53.724;9.898;2022-12-07T04:04:27;4.10;99.90
40516;DHT22;26216;53.724;9.898;2022-12-07T04:06:53;4.10;99.90
40516;DHT22;26216;53.724;9.898;2022-12-07T04:09:20;4.10;99.90
40516;DHT22;26216;53.724;9.898;2022-12-07T04:11:46;4.10;99.90
40516;DHT22;26216;53.724;9.898;2022-12-07T04:14:12;4.10;99.90
40516;DHT22;26216;53.724;9.898;2022-12-07T04:16:52;4.00;99.90
40516;DHT22;26216;53.724;9.898;2022-12-07T04:19:20;4.00;99.90
40516;DHT22;26216;53.724;9.898;2022-12-07T04:21:46;4.00;99.90
40516;DHT22;26216;53.724;9.898;2022-12-07T04:24:14;4.00;99.90
40516;DHT22;26216;53.724;9.898;2022-12-07T04:26:42;4.00;99.90
40516;DHT22;26216;53.724;9.898;2022-12-07T04:29:08;4.00;99.90
40516;DHT22;26216;53.724;9.898;2022-12-07T04:31:35;4.00;99.90
40516;DHT22;26216;53.724;9.898;2022-12-07T04:34:01;4.00;99.90
40516;DHT22;26216;53.724;9.898;2022-12-07T04:36:28;4.00;99.90
40516;DHT22;26216;53.724;9.898;2022-12-07T04:38:54;4.00;99.90
40516;DHT22;26216;53.724;9.898;2022-12-07T04:41:21;4.00;99.90
40516;DHT22;26216;53.724;9.898;2022-12-07T04:43:57;4.00;99.90
40516;DHT22;26216;53.724;9.898;2022-12-07T04:46:24;4.00;99.90
40516;DHT22;26216;53.724;9.898;2022-12-07T04:48:52;3.90;99.90
40516;DHT22;26216;53.724;9.898;2022-12-07T04:51:23;3.90;99.90
40516;DHT22;26216;53.724;9.898;2022-12-07T04:53:50;3.90;99.90
40516;DHT22;26216;53.724;9.898;2022-12-07T04:56:16;3.90;99.90
40516;DHT22;26216;53.724;9.898;2022-12-07T04:58:43;3.90;99.90
40516;DHT22;26216;53.724;9.898;2022-12-07T05:01:09;3.90;99.90
40516;DHT22;26216;53.724;9.898;2022-12-07T05:03:36;3.90;99.90
40516;DHT22;26216;53.724;9.898;2022-12-07T05:06:03;3.90;99.90
40516;DHT22;26216;53.724;9.898;2022-12-07T05:08:29;3.90;99.90
40516;DHT22;26216;53.724;9.898;2022-12-07T05:10:55;3.90;99.90
40516;DHT22;26216;53.724;9.898;2022-12-07T05:13:21;3.90;99.90
40516;DHT22;26216;53.724;9.898;2022-12-07T05:15:48;3.90;99.90
40516;DHT22;26216;53.724;9.898;2022-12-07T05:18:14;3.90;99.90
40516;DHT22;26216;53.724;9.898;2022-12-07T05:20:41;3.90;99.90
40516;DHT22;26216;53.724;9.898;2022-12-07T05:23:08;3.80;99.90
40516;DHT22;26216;53.724;9.898;2022-12-07T05:25:33;3.80;99.90
40516;DHT22;26216;53.724;9.898;2022-12-07T05:27:59;3.80;99.90
40516;DHT22;26216;53.724;9.898;2022-12-07T05:30:26;3.80;99.90
40516;DHT22;26216;53.724;9.898;2022-12-07T05:32:52;3.80;99.90
40516;DHT22;26216;53.724;9.898;2022-12-07T05:35:18;3.70;99.90
40516;DHT22;26216;53.724;9.898;2022-12-07T05:37:44;3.70;99.90
40516;DHT22;26216;53.724;9.898;2022-12-07T05:40:12;3.70;99.90
40516;DHT22;26216;53.724;9.898;2022-12-07T05:42:38;3.70;99.90
40516;DHT22;26216;53.724;9.898;2022-12-07T05:45:05;3.70;99.90
40516;DHT22;26216;53.724;9.898;2022-12-07T05:47:31;3.70;99.90
40516;DHT22;26216;53.724;9.898;2022-12-07T05:49:57;3.70;99.90
40516;DHT22;26216;53.724;9.898;2022-12-07T05:52:23;3.60;99.90
40516;DHT22;26216;53.724;9.898;2022-12-07T05:54:49;3.60;99.90
40516;DHT22;26216;53.724;9.898;2022-12-07T05:57:15;3.60;99.90
40516;DHT22;26216;53.724;9.898;2022-12-07T05:59:41;3.60;99.90
40516;DHT22;26216;53.724;9.898;2022-12-07T06:02:10;3.60;99.90
40516;DHT22;26216;53.724;9.898;2022-12-07T06:04:38;3.50;99.90
40516;DHT22;26216;53.724;9.898;2022-12-07T06:07:05;3.50;99.90
40516;DHT22;26216;53.724;9.898;2022-12-07T06:09:31;3.50;99.90
40516;DHT22;26216;53.724;9.898;2022-12-07T06:11:57;3.50;99.90
40516;DHT22;26216;53.724;9.898;2022-12-07T06:14:42;3.50;99.90
40516;DHT22;26216;53.724;9.898;2022-12-07T06:17:08;3.50;99.90
40516;DHT22;26216;53.724;9.898;2022-12-07T06:19:34;3.50;99.90
40516;DHT22;26216;53.724;9.898;2022-12-07T06:22:01;3.40;99.90
40516;DHT22;26216;53.724;9.898;2022-12-07T06:24:27;3.40;99.90
40516;DHT22;26216;53.724;9.898;2022-12-07T06:26:53;3.40;99.90
40516;DHT22;26216;53.724;9.898;2022-12-07T06:29:19;3.40;99.90
40516;DHT22;26216;53.724;9.898;2022-12-07T06:31:45;3.40;99.90
40516;DHT22;26216;53.724;9.898;2022-12-07T06:34:14;3.40;99.90
40516;DHT22;26216;53.724;9.898;2022-12-07T06:36:40;3.40;99.90
40516;DHT22;26216;53.724;9.898;2022-12-07T06:39:07;3.40;99.90
40516;DHT22;26216;53.724;9.898;2022-12-07T06:41:38;3.40;99.90
40516;DHT22;26216;53.724;9.898;2022-12-07T06:44:07;3.30;99.90
40516;DHT22;26216;53.724;9.898;2022-12-07T06:46:33;3.30;99.90
40516;DHT22;26216;53.724;9.898;2022-12-07T06:49:01;3.30;99.90
40516;DHT22;26216;53.724;9.898;2022-12-07T06:51:27;3.30;99.90
40516;DHT22;26216;53.724;9.898;2022-12-07T06:53:53;3.40;99.90
40516;DHT22;26216;53.724;9.898;2022-12-07T06:56:19;3.40;99.90
40516;DHT22;26216;53.724;9.898;2022-12-07T06:58:45;3.30;99.90
40516;DHT22;26216;53.724;9.898;2022-12-07T07:01:15;3.30;99.90
40516;DHT22;26216;53.724;9.898;2022-12-07T07:03:42;3.40;99.90
40516;DHT22;26216;53.724;9.898;2022-12-07T07:06:08;3.40;99.90
40516;DHT22;26216;53.724;9.898;2022-12-07T07:08:35;3.30;99.90
40516;DHT22;26216;53.724;9.898;2022-12-07T07:11:02;3.40;99.90
40516;DHT22;26216;53.724;9.898;2022-12-07T07:13:28;3.40;99.90
40516;DHT22;26216;53.724;9.898;2022-12-07T07:15:54;3.40;99.90
40516;DHT22;26216;53.724;9.898;2022-12-07T07:18:21;3.30;99.90
40516;DHT22;26216;53.724;9.898;2022-12-07T07:20:47;3.40;99.90
40516;DHT22;26216;53.724;9.898;2022-12-07T07:23:13;3.40;99.90
40516;DHT22;26216;53.724;9.898;2022-12-07T07:25:39;3.30;99.90
40516;DHT22;26216;53.724;9.898;2022-12-07T07:28:05;3.30;99.90
40516;DHT22;26216;53.724;9.898;2022-12-07T07:30:31;3.30;99.90
40516;DHT22;26216;53.724;9.898;2022-12-07T07:32:58;3.40;99.90
40516;DHT22;26216;53.724;9.898;2022-12-07T07:35:25;3.40;99.90
40516;DHT22;26216;53.724;9.898;2022-12-07T07:37:51;3.40;99.90
40516;DHT22;26216;53.724;9.898;2022-12-07T07:40:18;3.40;99.90
40516;DHT22;26216;53.724;9.898;2022-12-07T07:42:46;3.40;99.90
40516;DHT22;26216;53.724;9.898;2022-12-07T07:45:12;3.40;99.90
40516;DHT22;26216;53.724;9.898;2022-12-07T07:47:38;3.40;99.90
40516;DHT22;26216;53.724;9.898;2022-12-07T07:50:04;3.40;99.90
40516;DHT22;26216;53.724;9.898;2022-12-07T07:52:31;3.40;99.90
40516;DHT22;26216;53.724;9.898;2022-12-07T07:54:57;3.50;99.90
40516;DHT22;26216;53.724;9.898;2022-12-07T07:57:23;3.50;99.90
40516;DHT22;26216;53.724;9.898;2022-12-07T07:59:49;3.50;99.90
40516;DHT22;26216;53.724;9.898;2022-12-07T08:02:18;3.50;99.90
40516;DHT22;26216;53.724;9.898;2022-12-07T08:04:44;3.60;99.90
40516;DHT22;26216;53.724;9.898;2022-12-07T08:07:11;3.60;99.90
40516;DHT22;26216;53.724;9.898;2022-12-07T08:09:38;3.60;99.90
40516;DHT22;26216;53.724;9.898;2022-12-07T08:12:04;3.60;99.90
40516;DHT22;26216;53.724;9.898;2022-12-07T08:14:30;3.70;99.90
40516;DHT22;26216;53.724;9.898;2022-12-07T08:16:58;3.70;99.90
40516;DHT22;26216;53.724;9.898;2022-12-07T08:19:24;3.70;99.90
40516;DHT22;26216;53.724;9.898;2022-12-07T08:21:50;3.70;99.90
40516;DHT22;26216;53.724;9.898;2022-12-07T08:24:16;3.70;99.90
40516;DHT22;26216;53.724;9.898;2022-12-07T08:26:42;3.70;99.90
40516;DHT22;26216;53.724;9.898;2022-12-07T08:29:08;3.70;99.90
40516;DHT22;26216;53.724;9.898;2022-12-07T08:31:35;3.80;99.90
40516;DHT22;26216;53.724;9.898;2022-12-07T08:34:01;3.80;99.90
40516;DHT22;26216;53.724;9.898;2022-12-07T08:36:27;3.80;99.90
40516;DHT22;26216;53.724;9.898;2022-12-07T08:38:53;3.80;99.90
40516;DHT22;26216;53.724;9.898;2022-12-07T08:41:19;3.90;99.90
40516;DHT22;26216;53.724;9.898;2022-12-07T08:43:45;3.90;99.90
40516;DHT22;26216;53.724;9.898;2022-12-07T08:49:02;3.90;99.90
40516;DHT22;26216;53.724;9.898;2022-12-07T08:51:29;4.00;99.90
40516;DHT22;26216;53.724;9.898;2022-12-07T08:53:58;4.00;99.90
40516;DHT22;26216;53.724;9.898;2022-12-07T08:56:26;4.00;99.90
40516;DHT22;26216;53.724;9.898;2022-12-07T08:58:53;4.10;99.90
40516;DHT22;26216;53.724;9.898;2022-12-07T09:01:19;4.00;99.90
40516;DHT22;26216;53.724;9.898;2022-12-07T09:03:45;4.10;99.90
40516;DHT22;26216;53.724;9.898;2022-12-07T09:06:10;4.10;99.90
40516;DHT22;26216;53.724;9.898;2022-12-07T09:08:40;4.10;99.90
40516;DHT22;26216;53.724;9.898;2022-12-07T09:11:08;4.10;99.90
40516;DHT22;26216;53.724;9.898;2022-12-07T09:13:34;4.20;99.90
40516;DHT22;26216;53.724;9.898;2022-12-07T09:16:00;4.20;99.90
40516;DHT22;26216;53.724;9.898;2022-12-07T09:18:26;4.20;99.90
40516;DHT22;26216;53.724;9.898;2022-12-07T09:20:52;4.30;99.90
40516;DHT22;26216;53.724;9.898;2022-12-07T09:23:18;4.30;99.90
40516;DHT22;26216;53.724;9.898;2022-12-07T09:25:44;4.30;99.90
40516;DHT22;26216;53.724;9.898;2022-12-07T09:28:10;4.30;99.90
40516;DHT22;26216;53.724;9.898;2022-12-07T09:30:36;4.40;99.90
40516;DHT22;26216;53.724;9.898;2022-12-07T09:33:02;4.40;99.90
40516;DHT22;26216;53.724;9.898;2022-12-07T09:35:28;4.50;99.90
40516;DHT22;26216;53.724;9.898;2022-12-07T09:37:53;4.50;99.90
40516;DHT22;26216;53.724;9.898;2022-12-07T09:40:21;4.50;99.90
40516;DHT22;26216;53.724;9.898;2022-12-07T09:42:51;4.60;99.90
40516;DHT22;26216;53.724;9.898;2022-12-07T09:45:37;4.60;99.90
40516;DHT22;26216;53.724;9.898;2022-12-07T09:48:04;4.60;99.90
40516;DHT22;26216;53.724;9.898;2022-12-07T09:50:30;4.70;99.90
40516;DHT22;26216;53.724;9.898;2022-12-07T09:53:24;4.70;99.90
40516;DHT22;26216;53.724;9.898;2022-12-07T09:55:51;4.80;99.90
40516;DHT22;26216;53.724;9.898;2022-12-07T09:58:22;4.80;99.90
40516;DHT22;26216;53.724;9.898;2022-12-07T10:00:51;4.90;99.90
40516;DHT22;26216;53.724;9.898;2022-12-07T10:03:19;4.90;99.90
40516;DHT22;26216;53.724;9.898;2022-12-07T10:05:48;4.90;99.90
40516;DHT22;26216;53.724;9.898;2022-12-07T10:08:15;5.00;99.90
40516;DHT22;26216;53.724;9.898;2022-12-07T10:10:43;5.00;99.90
40516;DHT22;26216;53.724;9.898;2022-12-07T10:13:20;5.10;99.90
40516;DHT22;26216;53.724;9.898;2022-12-07T10:18:29;5.10;99.90
40516;DHT22;26216;53.724;9.898;2022-12-07T10:23:41;5.20;99.90
40516;DHT22;26216;53.724;9.898;2022-12-07T10:29:31;5.20;99.90
40516;DHT22;26216;53.724;9.898;2022-12-07T10:32:25;5.30;99.90
40516;DHT22;26216;53.724;9.898;2022-12-07T10:37:43;5.40;99.90
40516;DHT22;26216;53.724;9.898;2022-12-07T10:40:32;5.40;99.90
40516;DHT22;26216;53.724;9.898;2022-12-07T10:53:58;5.60;99.90
40516;DHT22;26216;53.724;9.898;2022-12-07T11:02:06;5.80;99.90
40516;DHT22;26216;53.724;9.898;2022-12-07T11:13:16;5.90;99.90
40516;DHT22;26216;53.724;9.898;2022-12-07T11:21:22;6.10;99.90
40516;DHT22;26216;53.724;9.898;2022-12-07T11:24:12;6.10;99.90
40516;DHT22;26216;53.724;9.898;2022-12-07T11:32:33;6.20;99.90
40516;DHT22;26216;53.724;9.898;2022-12-07T11:35:09;6.20;99.90
40516;DHT22;26216;53.724;9.898;2022-12-07T11:37:37;6.20;99.90
40516;DHT22;26216;53.724;9.898;2022-12-07T11:42:50;6.30;99.90
40516;DHT22;26216;53.724;9.898;2022-12-07T11:45:28;6.30;99.90
40516;DHT22;26216;53.724;9.898;2022-12-07T11:48:06;6.40;99.90
40516;DHT22;26216;53.724;9.898;2022-12-07T11:50:43;6.40;99.90
40516;DHT22;26216;53.724;9.898;2022-12-07T12:01:41;6.40;99.90
40516;DHT22;26216;53.724;9.898;2022-12-07T12:06:44;6.50;99.60
40516;DHT22;26216;53.724;9.898;2022-12-07T12:09:49;6.50;99.00
40516;DHT22;26216;53.724;9.898;2022-12-07T12:18:11;6.50;98.80
40516;DHT22;26216;53.724;9.898;2022-12-07T12:20:47;6.50;97.80
40516;DHT22;26216;53.724;9.898;2022-12-07T12:23:26;6.50;97.30
40516;DHT22;26216;53.724;9.898;2022-12-07T12:25:59;6.50;96.90
40516;DHT22;26216;53.724;9.898;2022-12-07T12:28:50;6.50;96.20
40516;DHT22;26216;53.724;9.898;2022-12-07T12:33:52;6.50;96.00
40516;DHT22;26216;53.724;9.898;2022-12-07T12:47:03;6.60;97.00
40516;DHT22;26216;53.724;9.898;2022-12-07T12:49:43;6.60;95.50
40516;DHT22;26216;53.724;9.898;2022-12-07T12:57:35;6.60;94.70
40516;DHT22;26216;53.724;9.898;2022-12-07T13:00:16;6.60;95.50
40516;DHT22;26216;53.724;9.898;2022-12-07T13:02:52;6.60;94.60
40516;DHT22;26216;53.724;9.898;2022-12-07T13:05:22;6.50;94.10
40516;DHT22;26216;53.724;9.898;2022-12-07T13:08:04;6.50;94.00
40516;DHT22;26216;53.724;9.898;2022-12-07T13:10:46;6.50;92.80
40516;DHT22;26216;53.724;9.898;2022-12-07T13:15:53;6.40;92.70
40516;DHT22;26216;53.724;9.898;2022-12-07T13:23:55;6.40;92.70
40516;DHT22;26216;53.724;9.898;2022-12-07T13:29:11;6.50;92.60
40516;DHT22;26216;53.724;9.898;2022-12-07T13:34:34;6.40;92.80
40516;DHT22;26216;53.724;9.898;2022-12-07T13:37:02;6.40;92.30
40516;DHT22;26216;53.724;9.898;2022-12-07T13:39:33;6.40;92.40
40516;DHT22;26216;53.724;9.898;2022-12-07T13:42:08;6.40;91.70
40516;DHT22;26216;53.724;9.898;2022-12-07T13:44:40;6.40;92.90
40516;DHT22;26216;53.724;9.898;2022-12-07T13:47:17;6.40;93.40
40516;DHT22;26216;53.724;9.898;2022-12-07T13:49:53;6.40;93.50
40516;DHT22;26216;53.724;9.898;2022-12-07T13:52:30;6.50;93.40
40516;DHT22;26216;53.724;9.898;2022-12-07T13:57:34;6.50;92.40
40516;DHT22;26216;53.724;9.898;2022-12-07T14:00:05;6.40;92.60
40516;DHT22;26216;53.724;9.898;2022-12-07T14:02:33;6.40;92.10
40516;DHT22;26216;53.724;9.898;2022-12-07T14:10:28;6.30;93.40
40516;DHT22;26216;53.724;9.898;2022-12-07T14:12:55;6.30;93.60
40516;DHT22;26216;53.724;9.898;2022-12-07T14:15:24;6.30;92.50
40516;DHT22;26216;53.724;9.898;2022-12-07T14:17:54;6.20;91.70
40516;DHT22;26216;53.724;9.898;2022-12-07T14:20:40;6.20;92.30
40516;DHT22;26216;53.724;9.898;2022-12-07T14:23:24;6.20;92.30
40516;DHT22;26216;53.724;9.898;2022-12-07T14:25:52;6.20;92.50
40516;DHT22;26216;53.724;9.898;2022-12-07T14:30:52;6.00;92.40
40516;DHT22;26216;53.724;9.898;2022-12-07T14:33:18;6.00;92.80
40516;DHT22;26216;53.724;9.898;2022-12-07T14:35:44;6.00;93.00
40516;DHT22;26216;53.724;9.898;2022-12-07T14:38:10;6.00;92.00
40516;DHT22;26216;53.724;9.898;2022-12-07T14:40:36;5.90;92.80
40516;DHT22;26216;53.724;9.898;2022-12-07T14:43:08;5.90;93.20
40516;DHT22;26216;53.724;9.898;2022-12-07T14:45:34;5.90;93.40
40516;DHT22;26216;53.724;9.898;2022-12-07T14:48:00;5.90;93.50
40516;DHT22;26216;53.724;9.898;2022-12-07T14:50:26;5.80;93.30
40516;DHT22;26216;53.724;9.898;2022-12-07T14:52:56;5.80;93.70
40516;DHT22;26216;53.724;9.898;2022-12-07T14:55:28;5.80;93.90
40516;DHT22;26216;53.724;9.898;2022-12-07T14:57:55;5.80;93.90
40516;DHT22;26216;53.724;9.898;2022-12-07T15:00:23;5.70;94.10
40516;DHT22;26216;53.724;9.898;2022-12-07T15:02:50;5.70;94.00
40516;DHT22;26216;53.724;9.898;2022-12-07T15:05:17;5.60;93.70
40516;DHT22;26216;53.724;9.898;2022-12-07T15:07:44;5.50;93.80
40516;DHT22;26216;53.724;9.898;2022-12-07T15:10:24;5.50;94.00
40516;DHT22;26216;53.724;9.898;2022-12-07T15:12:55;5.40;94.10
40516;DHT22;26216;53.724;9.898;2022-12-07T15:15:41;5.40;93.60
40516;DHT22;26216;53.724;9.898;2022-12-07T15:18:07;5.30;93.90
40516;DHT22;26216;53.724;9.898;2022-12-07T15:20:33;5.30;94.10
40516;DHT22;26216;53.724;9.898;2022-12-07T15:22:59;5.30;94.30
40516;DHT22;26216;53.724;9.898;2022-12-07T15:25:24;5.20;94.70
40516;DHT22;26216;53.724;9.898;2022-12-07T15:27:50;5.20;94.60
40516;DHT22;26216;53.724;9.898;2022-12-07T15:30:16;5.10;94.70
40516;DHT22;26216;53.724;9.898;2022-12-07T15:32:42;5.10;94.80
40516;DHT22;26216;53.724;9.898;2022-12-07T15:35:08;5.00;94.40
40516;DHT22;26216;53.724;9.898;2022-12-07T15:37:34;4.90;94.50
40516;DHT22;26216;53.724;9.898;2022-12-07T15:40:00;4.90;94.60
40516;DHT22;26216;53.724;9.898;2022-12-07T15:42:26;4.90;94.70
40516;DHT22;26216;53.724;9.898;2022-12-07T15:44:52;4.80;94.80
40516;DHT22;26216;53.724;9.898;2022-12-07T15:47:38;4.70;94.80
40516;DHT22;26216;53.724;9.898;2022-12-07T15:50:07;4.60;94.80
40516;DHT22;26216;53.724;9.898;2022-12-07T15:52:36;4.60;94.90
40516;DHT22;26216;53.724;9.898;2022-12-07T15:55:02;4.50;95.00
40516;DHT22;26216;53.724;9.898;2022-12-07T15:57:30;4.50;95.10
40516;DHT22;26216;53.724;9.898;2022-12-07T15:59:56;4.40;95.10
40516;DHT22;26216;53.724;9.898;2022-12-07T16:02:22;4.40;95.20
40516;DHT22;26216;53.724;9.898;2022-12-07T16:04:49;4.30;95.30
40516;DHT22;26216;53.724;9.898;2022-12-07T16:07:16;4.30;95.40
40516;DHT22;26216;53.724;9.898;2022-12-07T16:09:44;4.20;95.40
40516;DHT22;26216;53.724;9.898;2022-12-07T16:12:12;4.20;95.50
40516;DHT22;26216;53.724;9.898;2022-12-07T16:14:39;4.10;95.60
40516;DHT22;26216;53.724;9.898;2022-12-07T16:17:07;4.10;95.70
40516;DHT22;26216;53.724;9.898;2022-12-07T16:19:34;4.10;95.70
40516;DHT22;26216;53.724;9.898;2022-12-07T16:22:01;4.00;95.80
40516;DHT22;26216;53.724;9.898;2022-12-07T16:24:27;4.00;95.90
40516;DHT22;26216;53.724;9.898;2022-12-07T16:26:53;3.90;96.10
40516;DHT22;26216;53.724;9.898;2022-12-07T16:29:20;3.90;95.90
40516;DHT22;26216;53.724;9.898;2022-12-07T16:31:48;3.90;96.00
40516;DHT22;26216;53.724;9.898;2022-12-07T16:34:14;3.80;96.00
40516;DHT22;26216;53.724;9.898;2022-12-07T16:36:40;3.80;96.10
40516;DHT22;26216;53.724;9.898;2022-12-07T16:39:06;3.80;96.10
40516;DHT22;26216;53.724;9.898;2022-12-07T16:41:33;3.70;96.20
40516;DHT22;26216;53.724;9.898;2022-12-07T16:44:07;3.70;96.20
40516;DHT22;26216;53.724;9.898;2022-12-07T16:46:35;3.70;96.30
40516;DHT22;26216;53.724;9.898;2022-12-07T16:49:02;3.70;96.40
40516;DHT22;26216;53.724;9.898;2022-12-07T16:51:28;3.60;96.50
40516;DHT22;26216;53.724;9.898;2022-12-07T16:53:54;3.60;96.50
40516;DHT22;26216;53.724;9.898;2022-12-07T16:56:20;3.60;96.60
40516;DHT22;26216;53.724;9.898;2022-12-07T16:58:46;3.60;96.60
40516;DHT22;26216;53.724;9.898;2022-12-07T17:01:19;3.60;96.70
40516;DHT22;26216;53.724;9.898;2022-12-07T17:03:47;3.60;96.70
40516;DHT22;26216;53.724;9.898;2022-12-07T17:06:18;3.60;96.70
40516;DHT22;26216;53.724;9.898;2022-12-07T17:08:45;3.50;96.70
40516;DHT22;26216;53.724;9.898;2022-12-07T17:11:13;3.50;96.80
40516;DHT22;26216;53.724;9.898;2022-12-07T17:13:40;3.50;96.80
40516;DHT22;26216;53.724;9.898;2022-12-07T17:16:25;3.50;96.80
40516;DHT22;26216;53.724;9.898;2022-12-07T17:18:51;3.50;96.90
40516;DHT22;26216;53.724;9.898;2022-12-07T17:21:17;3.50;96.90
40516;DHT22;26216;53.724;9.898;2022-12-07T17:23:43;3.40;96.90
40516;DHT22;26216;53.724;9.898;2022-12-07T17:26:13;3.40;97.00
40516;DHT22;26216;53.724;9.898;2022-12-07T17:28:40;3.40;97.00
40516;DHT22;26216;53.724;9.898;2022-12-07T17:31:07;3.40;97.00
40516;DHT22;26216;53.724;9.898;2022-12-07T17:33:35;3.40;97.10
40516;DHT22;26216;53.724;9.898;2022-12-07T17:36:01;3.40;97.20
40516;DHT22;26216;53.724;9.898;2022-12-07T17:38:34;3.40;97.20
40516;DHT22;26216;53.724;9.898;2022-12-07T17:41:03;3.40;97.20
40516;DHT22;26216;53.724;9.898;2022-12-07T17:43:33;3.30;97.20
40516;DHT22;26216;53.724;9.898;2022-12-07T17:46:05;3.30;97.30
40516;DHT22;26216;53.724;9.898;2022-12-07T17:48:31;3.30;97.30
40516;DHT22;26216;53.724;9.898;2022-12-07T17:51:01;3.30;97.40
40516;DHT22;26216;53.724;9.898;2022-12-07T17:53:49;3.30;97.40
40516;DHT22;26216;53.724;9.898;2022-12-07T17:56:16;3.30;97.40
40516;DHT22;26216;53.724;9.898;2022-12-07T17:58:43;3.30;97.40
40516;DHT22;26216;53.724;9.898;2022-12-07T18:01:09;3.30;97.50
40516;DHT22;26216;53.724;9.898;2022-12-07T18:03:36;3.30;97.50
40516;DHT22;26216;53.724;9.898;2022-12-07T18:06:03;3.30;97.60
40516;DHT22;26216;53.724;9.898;2022-12-07T18:08:29;3.30;97.60
40516;DHT22;26216;53.724;9.898;2022-12-07T18:10:59;3.30;97.60
40516;DHT22;26216;53.724;9.898;2022-12-07T18:13:25;3.30;97.70